sensor_id;sensor_type;location;lat;lon;timestamp;P1;durP1;ratioP1;P2;durP2;ratioP2
63346;SDS011;49472;49.880;8.650;2023-08-06T00:00:02;18.83;;;17.60;;
63346;SDS011;49472;49.880;8.650;2023-08-06T00:02:27;19.40;;;18.00;;
63346;SDS011;49472;49.880;8.650;2023-08-06T00:04:53;20.20;;;17.93;;
63346;SDS011;49472;49.880;8.650;2023-08-06T00:07:18;19.80;;;18.40;;
63346;SDS011;49472;49.880;8.650;2023-08-06T00:09:43;18.50;;;17.30;;
63346;SDS011;49472;49.880;8.650;2023-08-06T00:12:09;19.93;;;18.10;;
63346;SDS011;49472;49.880;8.650;2023-08-06T00:14:34;19.80;;;18.17;;
63346;SDS011;49472;49.880;8.650;2023-08-06T00:16:59;19.00;;;17.80;;
63346;SDS011;49472;49.880;8.650;2023-08-06T00:19:25;19.63;;;18.07;;
63346;SDS011;49472;49.880;8.650;2023-08-06T00:21:50;19.37;;;17.80;;
63346;SDS011;49472;49.880;8.650;2023-08-06T00:24:15;20.23;;;17.50;;
63346;SDS011;49472;49.880;8.650;2023-08-06T00:26:41;19.63;;;18.13;;
63346;SDS011;49472;49.880;8.650;2023-08-06T00:29:06;18.80;;;17.57;;
63346;SDS011;49472;49.880;8.650;2023-08-06T00:31:32;18.53;;;17.20;;
63346;SDS011;49472;49.880;8.650;2023-08-06T00:33:58;19.33;;;17.93;;
63346;SDS011;49472;49.880;8.650;2023-08-06T00:36:23;18.53;;;17.13;;
63346;SDS011;49472;49.880;8.650;2023-08-06T00:38:48;19.13;;;17.73;;
63346;SDS011;49472;49.880;8.650;2023-08-06T00:41:14;19.03;;;17.40;;
63346;SDS011;49472;49.880;8.650;2023-08-06T00:43:40;19.33;;;17.97;;
63346;SDS011;49472;49.880;8.650;2023-08-06T00:46:05;18.10;;;16.93;;
63346;SDS011;49472;49.880;8.650;2023-08-06T00:48:31;18.33;;;16.83;;
63346;SDS011;49472;49.880;8.650;2023-08-06T00:50:56;18.87;;;17.13;;
63346;SDS011;49472;49.880;8.650;2023-08-06T00:53:22;20.37;;;18.67;;
63346;SDS011;49472;49.880;8.650;2023-08-06T00:55:47;19.27;;;17.63;;
63346;SDS011;49472;49.880;8.650;2023-08-06T00:58:13;19.37;;;17.90;;
63346;SDS011;49472;49.880;8.650;2023-08-06T01:00:41;19.43;;;18.00;;
63346;SDS011;49472;49.880;8.650;2023-08-06T01:03:06;19.80;;;18.20;;
63346;SDS011;49472;49.880;8.650;2023-08-06T01:05:31;18.60;;;17.13;;
63346;SDS011;49472;49.880;8.650;2023-08-06T01:08:07;18.17;;;16.93;;
63346;SDS011;49472;49.880;8.650;2023-08-06T01:13:47;17.57;;;16.37;;
63346;SDS011;49472;49.880;8.650;2023-08-06T01:16:17;18.63;;;17.13;;
63346;SDS011;49472;49.880;8.650;2023-08-06T01:18:43;18.23;;;16.97;;
63346;SDS011;49472;49.880;8.650;2023-08-06T01:21:14;18.57;;;16.97;;
63346;SDS011;49472;49.880;8.650;2023-08-06T01:23:39;17.83;;;16.73;;
63346;SDS011;49472;49.880;8.650;2023-08-06T01:28:50;18.77;;;17.50;;
63346;SDS011;49472;49.880;8.650;2023-08-06T01:31:22;18.17;;;16.80;;
63346;SDS011;49472;49.880;8.650;2023-08-06T01:33:51;18.03;;;16.73;;
63346;SDS011;49472;49.880;8.650;2023-08-06T01:36:19;17.90;;;16.80;;
63346;SDS011;49472;49.880;8.650;2023-08-06T01:38:45;17.30;;;16.20;;
63346;SDS011;49472;49.880;8.650;2023-08-06T01:41:11;17.73;;;16.63;;
63346;SDS011;49472;49.880;8.650;2023-08-06T01:43:36;18.47;;;17.17;;
63346;SDS011;49472;49.880;8.650;2023-08-06T01:46:01;18.93;;;17.40;;
63346;SDS011;49472;49.880;8.650;2023-08-06T01:48:26;17.97;;;16.80;;
63346;SDS011;49472;49.880;8.650;2023-08-06T01:50:52;19.43;;;17.57;;
63346;SDS011;49472;49.880;8.650;2023-08-06T01:53:17;18.03;;;16.60;;
63346;SDS011;49472;49.880;8.650;2023-08-06T01:55:47;18.23;;;16.77;;
63346;SDS011;49472;49.880;8.650;2023-08-06T01:58:13;17.83;;;16.73;;
63346;SDS011;49472;49.880;8.650;2023-08-06T02:00:38;17.30;;;16.10;;
63346;SDS011;49472;49.880;8.650;2023-08-06T02:03:03;17.37;;;15.97;;
63346;SDS011;49472;49.880;8.650;2023-08-06T02:05:29;18.40;;;17.17;;
63346;SDS011;49472;49.880;8.650;2023-08-06T02:07:54;17.20;;;16.10;;
63346;SDS011;49472;49.880;8.650;2023-08-06T02:10:19;18.43;;;17.03;;
63346;SDS011;49472;49.880;8.650;2023-08-06T02:12:45;18.53;;;16.83;;
63346;SDS011;49472;49.880;8.650;2023-08-06T02:15:10;17.63;;;16.53;;
63346;SDS011;49472;49.880;8.650;2023-08-06T02:17:35;18.43;;;16.83;;
63346;SDS011;49472;49.880;8.650;2023-08-06T02:20:01;17.53;;;16.23;;
63346;SDS011;49472;49.880;8.650;2023-08-06T02:22:26;17.40;;;16.30;;
63346;SDS011;49472;49.880;8.650;2023-08-06T02:24:51;18.50;;;17.10;;
63346;SDS011;49472;49.880;8.650;2023-08-06T02:27:19;18.03;;;16.63;;
63346;SDS011;49472;49.880;8.650;2023-08-06T02:29:44;18.47;;;17.03;;
63346;SDS011;49472;49.880;8.650;2023-08-06T02:32:10;18.63;;;17.03;;
63346;SDS011;49472;49.880;8.650;2023-08-06T02:34:35;17.70;;;16.40;;
63346;SDS011;49472;49.880;8.650;2023-08-06T02:37:00;18.00;;;16.80;;
63346;SDS011;49472;49.880;8.650;2023-08-06T02:39:25;17.67;;;16.57;;
63346;SDS011;49472;49.880;8.650;2023-08-06T02:41:51;17.47;;;16.33;;
63346;SDS011;49472;49.880;8.650;2023-08-06T02:44:16;19.00;;;17.40;;
63346;SDS011;49472;49.880;8.650;2023-08-06T02:46:41;18.27;;;16.87;;
63346;SDS011;49472;49.880;8.650;2023-08-06T02:49:06;23.60;;;17.37;;
63346;SDS011;49472;49.880;8.650;2023-08-06T02:51:32;18.00;;;16.53;;
63346;SDS011;49472;49.880;8.650;2023-08-06T02:53:57;18.17;;;16.87;;
63346;SDS011;49472;49.880;8.650;2023-08-06T02:56:22;18.10;;;16.80;;
63346;SDS011;49472;49.880;8.650;2023-08-06T02:58:48;19.67;;;17.70;;
63346;SDS011;49472;49.880;8.650;2023-08-06T03:01:13;18.83;;;17.43;;
63346;SDS011;49472;49.880;8.650;2023-08-06T03:03:38;18.23;;;16.83;;
63346;SDS011;49472;49.880;8.650;2023-08-06T03:06:04;18.20;;;16.83;;
63346;SDS011;49472;49.880;8.650;2023-08-06T03:08:29;19.03;;;17.43;;
63346;SDS011;49472;49.880;8.650;2023-08-06T03:10:55;18.30;;;16.43;;
63346;SDS011;49472;49.880;8.650;2023-08-06T03:13:20;17.60;;;16.50;;
63346;SDS011;49472;49.880;8.650;2023-08-06T03:15:52;18.00;;;16.90;;
63346;SDS011;49472;49.880;8.650;2023-08-06T03:18:21;19.37;;;17.47;;
63346;SDS011;49472;49.880;8.650;2023-08-06T03:20:48;17.47;;;16.37;;
63346;SDS011;49472;49.880;8.650;2023-08-06T03:23:14;17.43;;;16.20;;
63346;SDS011;49472;49.880;8.650;2023-08-06T03:25:39;17.50;;;16.37;;
63346;SDS011;49472;49.880;8.650;2023-08-06T03:28:04;18.17;;;16.60;;
63346;SDS011;49472;49.880;8.650;2023-08-06T03:30:30;18.10;;;16.80;;
63346;SDS011;49472;49.880;8.650;2023-08-06T03:32:55;18.00;;;16.53;;
63346;SDS011;49472;49.880;8.650;2023-08-06T03:35:20;17.43;;;16.23;;
63346;SDS011;49472;49.880;8.650;2023-08-06T03:37:46;18.37;;;17.03;;
63346;SDS011;49472;49.880;8.650;2023-08-06T03:40:11;19.63;;;17.87;;
63346;SDS011;49472;49.880;8.650;2023-08-06T03:42:36;18.93;;;17.70;;
63346;SDS011;49472;49.880;8.650;2023-08-06T03:45:02;17.70;;;16.50;;
63346;SDS011;49472;49.880;8.650;2023-08-06T03:47:28;18.00;;;16.70;;
63346;SDS011;49472;49.880;8.650;2023-08-06T03:49:53;17.90;;;16.60;;
63346;SDS011;49472;49.880;8.650;2023-08-06T03:52:18;18.67;;;16.97;;
63346;SDS011;49472;49.880;8.650;2023-08-06T03:54:43;18.90;;;17.27;;
63346;SDS011;49472;49.880;8.650;2023-08-06T03:57:09;17.97;;;16.77;;
63346;SDS011;49472;49.880;8.650;2023-08-06T03:59:35;18.30;;;17.00;;
63346;SDS011;49472;49.880;8.650;2023-08-06T04:02:00;18.47;;;16.77;;
63346;SDS011;49472;49.880;8.650;2023-08-06T04:04:26;17.53;;;16.40;;
63346;SDS011;49472;49.880;8.650;2023-08-06T04:06:51;18.23;;;17.00;;
63346;SDS011;49472;49.880;8.650;2023-08-06T04:09:16;18.70;;;17.10;;
63346;SDS011;49472;49.880;8.650;2023-08-06T04:11:42;17.10;;;16.00;;
63346;SDS011;49472;49.880;8.650;2023-08-06T04:14:07;18.20;;;16.83;;
63346;SDS011;49472;49.880;8.650;2023-08-06T04:16:33;17.23;;;16.07;;
63346;SDS011;49472;49.880;8.650;2023-08-06T04:18:58;14.20;;;13.00;;
63346;SDS011;49472;49.880;8.650;2023-08-06T04:21:24;11.90;;;11.07;;
63346;SDS011;49472;49.880;8.650;2023-08-06T04:23:49;10.03;;;9.33;;
63346;SDS011;49472;49.880;8.650;2023-08-06T04:26:14;9.57;;;8.67;;
63346;SDS011;49472;49.880;8.650;2023-08-06T04:28:40;8.80;;;8.03;;
63346;SDS011;49472;49.880;8.650;2023-08-06T04:31:05;9.33;;;8.70;;
63346;SDS011;49472;49.880;8.650;2023-08-06T04:33:31;9.13;;;8.33;;
63346;SDS011;49472;49.880;8.650;2023-08-06T04:35:56;8.73;;;6.10;;
63346;SDS011;49472;49.880;8.650;2023-08-06T04:38:25;10.27;;;7.03;;
63346;SDS011;49472;49.880;8.650;2023-08-06T04:40:50;14.37;;;8.77;;
63346;SDS011;49472;49.880;8.650;2023-08-06T04:43:16;10.77;;;8.23;;
63346;SDS011;49472;49.880;8.650;2023-08-06T04:45:51;8.63;;;7.63;;
63346;SDS011;49472;49.880;8.650;2023-08-06T04:48:18;14.07;;;9.07;;
63346;SDS011;49472;49.880;8.650;2023-08-06T04:50:48;9.90;;;8.20;;
63346;SDS011;49472;49.880;8.650;2023-08-06T04:53:14;10.23;;;8.57;;
63346;SDS011;49472;49.880;8.650;2023-08-06T04:55:40;9.70;;;8.03;;
63346;SDS011;49472;49.880;8.650;2023-08-06T04:58:06;10.00;;;8.10;;
63346;SDS011;49472;49.880;8.650;2023-08-06T05:00:31;8.73;;;8.03;;
63346;SDS011;49472;49.880;8.650;2023-08-06T05:02:59;9.67;;;8.73;;
63346;SDS011;49472;49.880;8.650;2023-08-06T05:05:25;10.83;;;9.93;;
63346;SDS011;49472;49.880;8.650;2023-08-06T05:07:51;20.53;;;14.87;;
63346;SDS011;49472;49.880;8.650;2023-08-06T05:10:16;16.37;;;14.93;;
63346;SDS011;49472;49.880;8.650;2023-08-06T05:12:41;15.63;;;14.40;;
63346;SDS011;49472;49.880;8.650;2023-08-06T05:15:07;16.67;;;14.03;;
63346;SDS011;49472;49.880;8.650;2023-08-06T05:17:33;16.40;;;14.80;;
63346;SDS011;49472;49.880;8.650;2023-08-06T05:19:59;14.93;;;13.37;;
63346;SDS011;49472;49.880;8.650;2023-08-06T05:22:24;15.30;;;14.20;;
63346;SDS011;49472;49.880;8.650;2023-08-06T05:24:50;14.67;;;13.37;;
63346;SDS011;49472;49.880;8.650;2023-08-06T05:27:15;14.30;;;13.20;;
63346;SDS011;49472;49.880;8.650;2023-08-06T05:29:40;14.37;;;13.10;;
63346;SDS011;49472;49.880;8.650;2023-08-06T05:32:06;14.87;;;13.67;;
63346;SDS011;49472;49.880;8.650;2023-08-06T05:34:31;14.07;;;12.73;;
63346;SDS011;49472;49.880;8.650;2023-08-06T05:36:57;13.40;;;12.50;;
63346;SDS011;49472;49.880;8.650;2023-08-06T05:39:22;7.77;;;7.17;;
63346;SDS011;49472;49.880;8.650;2023-08-06T05:41:48;11.40;;;9.63;;
63346;SDS011;49472;49.880;8.650;2023-08-06T05:44:15;10.70;;;10.00;;
63346;SDS011;49472;49.880;8.650;2023-08-06T05:46:41;20.57;;;10.57;;
63346;SDS011;49472;49.880;8.650;2023-08-06T05:49:06;12.27;;;11.20;;
63346;SDS011;49472;49.880;8.650;2023-08-06T05:51:31;14.53;;;13.13;;
63346;SDS011;49472;49.880;8.650;2023-08-06T05:53:57;13.30;;;12.17;;
63346;SDS011;49472;49.880;8.650;2023-08-06T05:56:22;13.93;;;12.60;;
63346;SDS011;49472;49.880;8.650;2023-08-06T05:58:47;14.80;;;13.70;;
63346;SDS011;49472;49.880;8.650;2023-08-06T06:01:13;14.30;;;13.30;;
63346;SDS011;49472;49.880;8.650;2023-08-06T06:03:39;15.67;;;14.07;;
63346;SDS011;49472;49.880;8.650;2023-08-06T06:06:04;14.97;;;13.77;;
63346;SDS011;49472;49.880;8.650;2023-08-06T06:08:30;15.80;;;14.13;;
63346;SDS011;49472;49.880;8.650;2023-08-06T06:10:56;14.80;;;13.40;;
63346;SDS011;49472;49.880;8.650;2023-08-06T06:13:21;15.57;;;14.03;;
63346;SDS011;49472;49.880;8.650;2023-08-06T06:15:46;14.63;;;13.53;;
63346;SDS011;49472;49.880;8.650;2023-08-06T06:18:12;15.17;;;13.73;;
63346;SDS011;49472;49.880;8.650;2023-08-06T06:20:38;13.60;;;12.30;;
63346;SDS011;49472;49.880;8.650;2023-08-06T06:23:03;12.77;;;11.87;;
63346;SDS011;49472;49.880;8.650;2023-08-06T06:25:29;14.27;;;12.37;;
63346;SDS011;49472;49.880;8.650;2023-08-06T06:27:54;12.83;;;11.80;;
63346;SDS011;49472;49.880;8.650;2023-08-06T06:30:19;13.23;;;12.13;;
63346;SDS011;49472;49.880;8.650;2023-08-06T06:32:44;12.67;;;11.07;;
63346;SDS011;49472;49.880;8.650;2023-08-06T06:35:10;12.77;;;11.73;;
63346;SDS011;49472;49.880;8.650;2023-08-06T06:37:35;12.60;;;11.80;;
63346;SDS011;49472;49.880;8.650;2023-08-06T06:40:00;17.30;;;12.80;;
63346;SDS011;49472;49.880;8.650;2023-08-06T06:42:26;12.00;;;11.20;;
63346;SDS011;49472;49.880;8.650;2023-08-06T06:44:51;14.60;;;10.47;;
63346;SDS011;49472;49.880;8.650;2023-08-06T06:47:17;16.07;;;9.73;;
63346;SDS011;49472;49.880;8.650;2023-08-06T06:49:42;10.87;;;10.07;;
63346;SDS011;49472;49.880;8.650;2023-08-06T06:52:07;10.30;;;9.50;;
63346;SDS011;49472;49.880;8.650;2023-08-06T06:54:33;12.40;;;11.23;;
63346;SDS011;49472;49.880;8.650;2023-08-06T06:56:58;12.90;;;11.83;;
63346;SDS011;49472;49.880;8.650;2023-08-06T06:59:23;11.50;;;10.90;;
63346;SDS011;49472;49.880;8.650;2023-08-06T07:01:49;13.40;;;10.00;;
63346;SDS011;49472;49.880;8.650;2023-08-06T07:04:14;13.27;;;10.60;;
63346;SDS011;49472;49.880;8.650;2023-08-06T07:06:40;12.17;;;10.90;;
63346;SDS011;49472;49.880;8.650;2023-08-06T07:09:07;11.37;;;10.50;;
63346;SDS011;49472;49.880;8.650;2023-08-06T07:11:32;6.73;;;6.00;;
63346;SDS011;49472;49.880;8.650;2023-08-06T07:13:57;11.40;;;9.40;;
63346;SDS011;49472;49.880;8.650;2023-08-06T07:16:24;11.67;;;10.50;;
63346;SDS011;49472;49.880;8.650;2023-08-06T07:18:51;11.57;;;10.50;;
63346;SDS011;49472;49.880;8.650;2023-08-06T07:21:17;10.23;;;9.43;;
63346;SDS011;49472;49.880;8.650;2023-08-06T07:23:43;10.10;;;9.50;;
63346;SDS011;49472;49.880;8.650;2023-08-06T07:26:08;10.30;;;9.53;;
63346;SDS011;49472;49.880;8.650;2023-08-06T07:28:34;15.03;;;9.30;;
63346;SDS011;49472;49.880;8.650;2023-08-06T07:30:59;8.13;;;7.57;;
63346;SDS011;49472;49.880;8.650;2023-08-06T07:33:25;9.43;;;8.77;;
63346;SDS011;49472;49.880;8.650;2023-08-06T07:35:50;8.60;;;8.00;;
63346;SDS011;49472;49.880;8.650;2023-08-06T07:38:16;8.30;;;7.60;;
63346;SDS011;49472;49.880;8.650;2023-08-06T07:40:41;8.07;;;7.30;;
63346;SDS011;49472;49.880;8.650;2023-08-06T07:43:07;5.90;;;5.47;;
63346;SDS011;49472;49.880;8.650;2023-08-06T07:45:33;8.17;;;4.40;;
63346;SDS011;49472;49.880;8.650;2023-08-06T07:47:59;5.77;;;4.50;;
63346;SDS011;49472;49.880;8.650;2023-08-06T07:50:25;4.93;;;4.43;;
63346;SDS011;49472;49.880;8.650;2023-08-06T07:52:50;8.47;;;4.70;;
63346;SDS011;49472;49.880;8.650;2023-08-06T07:55:15;3.20;;;2.97;;
63346;SDS011;49472;49.880;8.650;2023-08-06T07:57:41;7.57;;;4.00;;
63346;SDS011;49472;49.880;8.650;2023-08-06T08:00:06;8.23;;;4.30;;
63346;SDS011;49472;49.880;8.650;2023-08-06T08:02:32;7.80;;;4.03;;
63346;SDS011;49472;49.880;8.650;2023-08-06T08:04:58;5.97;;;4.17;;
63346;SDS011;49472;49.880;8.650;2023-08-06T08:07:24;10.37;;;4.40;;
63346;SDS011;49472;49.880;8.650;2023-08-06T08:09:49;6.50;;;5.10;;
63346;SDS011;49472;49.880;8.650;2023-08-06T08:12:14;5.93;;;5.27;;
63346;SDS011;49472;49.880;8.650;2023-08-06T08:14:40;11.00;;;5.73;;
63346;SDS011;49472;49.880;8.650;2023-08-06T08:17:05;7.80;;;6.30;;
63346;SDS011;49472;49.880;8.650;2023-08-06T08:19:31;11.27;;;6.80;;
63346;SDS011;49472;49.880;8.650;2023-08-06T08:21:57;10.63;;;7.40;;
63346;SDS011;49472;49.880;8.650;2023-08-06T08:24:22;7.63;;;6.93;;
63346;SDS011;49472;49.880;8.650;2023-08-06T08:26:51;7.50;;;6.87;;
63346;SDS011;49472;49.880;8.650;2023-08-06T08:29:18;7.73;;;7.07;;
63346;SDS011;49472;49.880;8.650;2023-08-06T08:31:44;7.33;;;6.63;;
63346;SDS011;49472;49.880;8.650;2023-08-06T08:34:10;8.83;;;6.33;;
63346;SDS011;49472;49.880;8.650;2023-08-06T08:36:35;34.37;;;7.10;;
63346;SDS011;49472;49.880;8.650;2023-08-06T08:39:00;6.73;;;6.23;;
63346;SDS011;49472;49.880;8.650;2023-08-06T08:41:34;8.70;;;7.17;;
63346;SDS011;49472;49.880;8.650;2023-08-06T08:44:01;8.00;;;7.10;;
63346;SDS011;49472;49.880;8.650;2023-08-06T08:46:28;8.03;;;7.57;;
63346;SDS011;49472;49.880;8.650;2023-08-06T08:48:55;10.40;;;9.43;;
63346;SDS011;49472;49.880;8.650;2023-08-06T08:51:22;9.97;;;9.27;;
63346;SDS011;49472;49.880;8.650;2023-08-06T08:53:48;9.90;;;9.20;;
63346;SDS011;49472;49.880;8.650;2023-08-06T08:56:17;11.40;;;10.50;;
63346;SDS011;49472;49.880;8.650;2023-08-06T08:58:44;12.00;;;11.00;;
63346;SDS011;49472;49.880;8.650;2023-08-06T09:01:15;11.07;;;10.37;;
63346;SDS011;49472;49.880;8.650;2023-08-06T09:03:41;10.40;;;9.80;;
63346;SDS011;49472;49.880;8.650;2023-08-06T09:06:08;11.13;;;10.30;;
63346;SDS011;49472;49.880;8.650;2023-08-06T09:08:37;10.93;;;10.23;;
63346;SDS011;49472;49.880;8.650;2023-08-06T09:11:09;10.20;;;9.60;;
63346;SDS011;49472;49.880;8.650;2023-08-06T09:13:36;10.27;;;9.77;;
63346;SDS011;49472;49.880;8.650;2023-08-06T09:16:02;11.17;;;10.17;;
63346;SDS011;49472;49.880;8.650;2023-08-06T09:18:29;10.93;;;10.43;;
63346;SDS011;49472;49.880;8.650;2023-08-06T09:20:55;10.80;;;10.20;;
63346;SDS011;49472;49.880;8.650;2023-08-06T09:23:22;11.40;;;10.60;;
63346;SDS011;49472;49.880;8.650;2023-08-06T09:25:54;11.47;;;10.97;;
63346;SDS011;49472;49.880;8.650;2023-08-06T09:28:19;11.90;;;11.30;;
63346;SDS011;49472;49.880;8.650;2023-08-06T09:30:46;11.40;;;10.90;;
63346;SDS011;49472;49.880;8.650;2023-08-06T09:33:14;12.10;;;11.50;;
63346;SDS011;49472;49.880;8.650;2023-08-06T09:35:43;12.53;;;11.60;;
63346;SDS011;49472;49.880;8.650;2023-08-06T09:38:09;12.50;;;11.80;;
63346;SDS011;49472;49.880;8.650;2023-08-06T09:40:38;12.30;;;11.60;;
63346;SDS011;49472;49.880;8.650;2023-08-06T09:43:04;12.57;;;11.97;;
63346;SDS011;49472;49.880;8.650;2023-08-06T09:45:33;13.00;;;12.30;;
63346;SDS011;49472;49.880;8.650;2023-08-06T09:48:01;11.87;;;11.37;;
63346;SDS011;49472;49.880;8.650;2023-08-06T09:50:31;11.70;;;11.20;;
63346;SDS011;49472;49.880;8.650;2023-08-06T09:52:59;11.50;;;11.00;;
63346;SDS011;49472;49.880;8.650;2023-08-06T09:55:25;11.83;;;11.23;;
63346;SDS011;49472;49.880;8.650;2023-08-06T09:57:52;11.27;;;10.70;;
63346;SDS011;49472;49.880;8.650;2023-08-06T10:00:18;11.10;;;10.50;;
63346;SDS011;49472;49.880;8.650;2023-08-06T10:02:43;10.90;;;10.40;;
63346;SDS011;49472;49.880;8.650;2023-08-06T10:05:16;11.07;;;10.33;;
63346;SDS011;49472;49.880;8.650;2023-08-06T10:07:42;10.67;;;10.07;;
63346;SDS011;49472;49.880;8.650;2023-08-06T10:10:09;11.00;;;10.40;;
63346;SDS011;49472;49.880;8.650;2023-08-06T10:12:37;11.10;;;10.50;;
63346;SDS011;49472;49.880;8.650;2023-08-06T10:15:06;12.30;;;11.40;;
63346;SDS011;49472;49.880;8.650;2023-08-06T10:17:36;11.27;;;10.70;;
63346;SDS011;49472;49.880;8.650;2023-08-06T10:20:03;11.77;;;11.17;;
63346;SDS011;49472;49.880;8.650;2023-08-06T10:22:31;11.63;;;11.03;;
63346;SDS011;49472;49.880;8.650;2023-08-06T10:24:58;11.33;;;10.83;;
63346;SDS011;49472;49.880;8.650;2023-08-06T10:32:53;9.80;;;9.20;;
63346;SDS011;49472;49.880;8.650;2023-08-06T10:35:29;9.60;;;9.20;;
63346;SDS011;49472;49.880;8.650;2023-08-06T10:38:07;9.60;;;9.10;;
63346;SDS011;49472;49.880;8.650;2023-08-06T10:40:42;12.03;;;11.33;;
63346;SDS011;49472;49.880;8.650;2023-08-06T10:43:24;11.53;;;10.93;;
63346;SDS011;49472;49.880;8.650;2023-08-06T10:45:54;11.50;;;10.80;;
63346;SDS011;49472;49.880;8.650;2023-08-06T10:48:39;11.63;;;10.83;;
63346;SDS011;49472;49.880;8.650;2023-08-06T10:51:09;11.60;;;11.10;;
63346;SDS011;49472;49.880;8.650;2023-08-06T10:53:36;12.47;;;11.70;;
63346;SDS011;49472;49.880;8.650;2023-08-06T10:56:11;11.67;;;11.07;;
63346;SDS011;49472;49.880;8.650;2023-08-06T10:58:51;12.90;;;12.30;;
63346;SDS011;49472;49.880;8.650;2023-08-06T11:01:21;12.30;;;11.70;;
63346;SDS011;49472;49.880;8.650;2023-08-06T11:03:49;13.43;;;12.53;;
63346;SDS011;49472;49.880;8.650;2023-08-06T11:06:19;13.17;;;12.57;;
63346;SDS011;49472;49.880;8.650;2023-08-06T11:08:52;13.10;;;12.40;;
63346;SDS011;49472;49.880;8.650;2023-08-06T11:11:19;13.50;;;12.80;;
63346;SDS011;49472;49.880;8.650;2023-08-06T11:13:48;13.20;;;12.50;;
63346;SDS011;49472;49.880;8.650;2023-08-06T11:16:19;13.10;;;12.40;;
63346;SDS011;49472;49.880;8.650;2023-08-06T11:18:46;13.37;;;12.70;;
63346;SDS011;49472;49.880;8.650;2023-08-06T11:21:12;14.03;;;13.13;;
63346;SDS011;49472;49.880;8.650;2023-08-06T11:23:38;14.03;;;13.10;;
63346;SDS011;49472;49.880;8.650;2023-08-06T11:26:05;14.40;;;13.70;;
63346;SDS011;49472;49.880;8.650;2023-08-06T11:28:30;14.07;;;13.37;;
63346;SDS011;49472;49.880;8.650;2023-08-06T11:30:56;14.60;;;13.70;;
63346;SDS011;49472;49.880;8.650;2023-08-06T11:33:25;14.70;;;13.80;;
63346;SDS011;49472;49.880;8.650;2023-08-06T11:35:54;14.50;;;13.80;;
63346;SDS011;49472;49.880;8.650;2023-08-06T11:38:21;13.80;;;13.10;;
63346;SDS011;49472;49.880;8.650;2023-08-06T11:40:49;13.87;;;13.00;;
63346;SDS011;49472;49.880;8.650;2023-08-06T11:43:15;13.63;;;12.97;;
63346;SDS011;49472;49.880;8.650;2023-08-06T11:45:43;14.73;;;13.93;;
63346;SDS011;49472;49.880;8.650;2023-08-06T11:48:09;14.90;;;14.00;;
63346;SDS011;49472;49.880;8.650;2023-08-06T11:50:37;14.90;;;14.10;;
63346;SDS011;49472;49.880;8.650;2023-08-06T11:53:06;15.30;;;14.40;;
63346;SDS011;49472;49.880;8.650;2023-08-06T11:55:32;14.70;;;14.00;;
63346;SDS011;49472;49.880;8.650;2023-08-06T11:57:58;15.07;;;14.27;;
63346;SDS011;49472;49.880;8.650;2023-08-06T12:00:24;14.37;;;13.57;;
63346;SDS011;49472;49.880;8.650;2023-08-06T12:02:51;14.40;;;13.70;;
63346;SDS011;49472;49.880;8.650;2023-08-06T12:05:20;14.63;;;13.60;;
63346;SDS011;49472;49.880;8.650;2023-08-06T12:07:49;14.80;;;14.00;;
63346;SDS011;49472;49.880;8.650;2023-08-06T12:10:15;13.63;;;12.93;;
63346;SDS011;49472;49.880;8.650;2023-08-06T12:12:43;13.60;;;12.90;;
63346;SDS011;49472;49.880;8.650;2023-08-06T12:15:09;13.40;;;12.80;;
63346;SDS011;49472;49.880;8.650;2023-08-06T12:17:35;13.50;;;12.80;;
63346;SDS011;49472;49.880;8.650;2023-08-06T12:20:02;14.17;;;13.37;;
63346;SDS011;49472;49.880;8.650;2023-08-06T12:22:29;14.17;;;13.47;;
63346;SDS011;49472;49.880;8.650;2023-08-06T12:24:57;14.70;;;14.00;;
63346;SDS011;49472;49.880;8.650;2023-08-06T12:27:22;14.40;;;13.70;;
63346;SDS011;49472;49.880;8.650;2023-08-06T12:29:48;14.40;;;13.60;;
63346;SDS011;49472;49.880;8.650;2023-08-06T12:32:13;14.80;;;13.77;;
63346;SDS011;49472;49.880;8.650;2023-08-06T12:34:39;14.17;;;13.27;;
63346;SDS011;49472;49.880;8.650;2023-08-06T12:37:06;13.90;;;13.20;;
63346;SDS011;49472;49.880;8.650;2023-08-06T12:39:32;15.30;;;14.10;;
63346;SDS011;49472;49.880;8.650;2023-08-06T12:42:01;14.70;;;13.90;;
63346;SDS011;49472;49.880;8.650;2023-08-06T12:44:29;14.83;;;14.03;;
63346;SDS011;49472;49.880;8.650;2023-08-06T12:46:55;15.10;;;14.00;;
63346;SDS011;49472;49.880;8.650;2023-08-06T12:49:20;15.30;;;14.40;;
63346;SDS011;49472;49.880;8.650;2023-08-06T12:51:46;16.30;;;14.50;;
63346;SDS011;49472;49.880;8.650;2023-08-06T12:54:14;15.07;;;14.27;;
63346;SDS011;49472;49.880;8.650;2023-08-06T12:56:39;15.90;;;14.77;;
63346;SDS011;49472;49.880;8.650;2023-08-06T12:59:04;15.47;;;14.67;;
63346;SDS011;49472;49.880;8.650;2023-08-06T13:01:30;15.10;;;14.30;;
63346;SDS011;49472;49.880;8.650;2023-08-06T13:03:55;15.43;;;14.43;;
63346;SDS011;49472;49.880;8.650;2023-08-06T13:06:20;15.23;;;14.43;;
63346;SDS011;49472;49.880;8.650;2023-08-06T13:08:46;15.93;;;14.83;;
63346;SDS011;49472;49.880;8.650;2023-08-06T13:11:11;15.50;;;14.60;;
63346;SDS011;49472;49.880;8.650;2023-08-06T13:13:36;15.00;;;14.20;;
63346;SDS011;49472;49.880;8.650;2023-08-06T13:16:04;15.53;;;14.67;;
63346;SDS011;49472;49.880;8.650;2023-08-06T13:18:29;14.97;;;14.17;;
63346;SDS011;49472;49.880;8.650;2023-08-06T13:20:56;15.73;;;14.73;;
63346;SDS011;49472;49.880;8.650;2023-08-06T13:23:21;15.67;;;14.80;;
63346;SDS011;49472;49.880;8.650;2023-08-06T13:25:46;15.70;;;14.80;;
63346;SDS011;49472;49.880;8.650;2023-08-06T13:28:12;16.13;;;15.03;;
63346;SDS011;49472;49.880;8.650;2023-08-06T13:30:39;15.50;;;14.60;;
63346;SDS011;49472;49.880;8.650;2023-08-06T13:33:07;15.00;;;14.20;;
63346;SDS011;49472;49.880;8.650;2023-08-06T13:35:33;15.53;;;14.70;;
63346;SDS011;49472;49.880;8.650;2023-08-06T13:37:59;16.13;;;15.07;;
63346;SDS011;49472;49.880;8.650;2023-08-06T13:40:27;16.57;;;15.23;;
63346;SDS011;49472;49.880;8.650;2023-08-06T13:42:54;16.37;;;15.27;;
63346;SDS011;49472;49.880;8.650;2023-08-06T13:45:20;15.43;;;14.53;;
63346;SDS011;49472;49.880;8.650;2023-08-06T13:47:46;16.17;;;14.57;;
63346;SDS011;49472;49.880;8.650;2023-08-06T13:50:11;15.50;;;14.60;;
63346;SDS011;49472;49.880;8.650;2023-08-06T13:52:38;15.73;;;14.80;;
63346;SDS011;49472;49.880;8.650;2023-08-06T13:55:05;14.63;;;13.93;;
63346;SDS011;49472;49.880;8.650;2023-08-06T13:57:31;15.37;;;14.47;;
63346;SDS011;49472;49.880;8.650;2023-08-06T13:59:57;15.47;;;14.57;;
63346;SDS011;49472;49.880;8.650;2023-08-06T14:02:23;14.80;;;14.00;;
63346;SDS011;49472;49.880;8.650;2023-08-06T14:04:54;14.80;;;14.00;;
63346;SDS011;49472;49.880;8.650;2023-08-06T14:07:20;15.03;;;14.23;;
63346;SDS011;49472;49.880;8.650;2023-08-06T14:09:45;15.47;;;14.57;;
63346;SDS011;49472;49.880;8.650;2023-08-06T14:12:12;14.87;;;14.17;;
63346;SDS011;49472;49.880;8.650;2023-08-06T14:14:38;15.17;;;14.27;;
63346;SDS011;49472;49.880;8.650;2023-08-06T14:17:03;15.13;;;14.23;;
63346;SDS011;49472;49.880;8.650;2023-08-06T14:19:29;14.93;;;13.80;;
63346;SDS011;49472;49.880;8.650;2023-08-06T14:21:55;14.83;;;14.00;;
63346;SDS011;49472;49.880;8.650;2023-08-06T14:24:21;15.77;;;14.30;;
63346;SDS011;49472;49.880;8.650;2023-08-06T14:26:47;14.60;;;13.50;;
63346;SDS011;49472;49.880;8.650;2023-08-06T14:29:12;15.07;;;14.30;;
63346;SDS011;49472;49.880;8.650;2023-08-06T14:31:40;15.60;;;14.70;;